Time;durP1;ratioP1;P1;durP2;ratioP2;P2;SDS_P1;SDS_P2;PMS_P1;PMS_P2;Temp;Humidity;BMP_temperature;BMP_pressure;BME280_temperature;BME280_humidity;BME280_pressure;Samples;Min_cycle;Max_cycle;Signal;HPM_P1;HPM_P2
2023/09/14 00:00:51;;;;;;;2.75;1.95;;;16.30;99.90;;;;;;5078367;28;20511;-80
2023/09/14 00:03:18;;;;;;;3.65;2.00;;;16.30;99.90;;;;;;5060241;28;20027;-80
2023/09/14 00:05:45;;;;;;;3.17;1.75;;;16.30;99.90;;;;;;5077676;28;20051;-80
2023/09/14 00:08:12;;;;;;;2.67;1.70;;;16.30;99.90;;;;;;5078185;28;20485;-80
2023/09/14 00:10:38;;;;;;;2.78;1.90;;;16.30;99.90;;;;;;5060009;28;20081;-80
2023/09/14 00:13:05;;;;;;;2.38;1.38;;;16.30;99.90;;;;;;5077866;28;20507;-80
2023/09/14 00:15:32;;;;;;;3.33;1.95;;;16.30;99.90;;;;;;5060073;28;20044;-81
2023/09/14 00:17:57;;;;;;;2.80;1.67;;;16.30;99.90;;;;;;5077865;28;20046;-80
2023/09/14 00:20:26;;;;;;;3.45;1.88;;;16.30;99.90;;;;;;5077508;28;20029;-80
2023/09/14 00:22:55;;;;;;;4.63;2.05;;;16.30;99.90;;;;;;5078319;28;20075;-80
2023/09/14 00:25:21;;;;;;;2.42;1.63;;;16.30;99.90;;;;;;5079317;28;20544;-80
2023/09/14 00:27:53;;;;;;;3.92;2.00;;;16.30;99.90;;;;;;5069177;28;20033;-80
2023/09/14 00:30:23;;;;;;;2.50;1.70;;;16.30;99.90;;;;;;5086551;28;20112;-80
2023/09/14 00:32:52;;;;;;;2.53;1.50;;;16.30;99.90;;;;;;5077943;28;20039;-81
2023/09/14 00:35:20;;;;;;;3.00;1.42;;;16.30;99.90;;;;;;5077649;28;20028;-81
2023/09/14 00:37:46;;;;;;;2.38;1.55;;;16.30;99.90;;;;;;5060185;28;20619;-81
2023/09/14 00:40:14;;;;;;;2.72;1.80;;;16.20;99.90;;;;;;5078175;28;20024;-80
2023/09/14 00:42:41;;;;;;;4.43;1.95;;;16.20;99.90;;;;;;5078068;28;20021;-80
2023/09/14 00:45:13;;;;;;;2.75;1.70;;;16.20;99.90;;;;;;5077865;28;20107;-81
2023/09/14 00:47:42;;;;;;;2.90;1.52;;;16.20;99.90;;;;;;5077677;28;20024;-81
2023/09/14 00:50:08;;;;;;;2.60;1.73;;;16.20;99.90;;;;;;5077425;28;20049;-81
2023/09/14 00:52:36;;;;;;;3.20;1.60;;;16.20;99.90;;;;;;5077556;28;20064;-81
2023/09/14 00:55:05;;;;;;;2.53;1.50;;;16.20;99.90;;;;;;5059581;28;20080;-81
2023/09/14 00:57:32;;;;;;;2.83;1.60;;;16.20;99.90;;;;;;5077315;28;20443;-81
2023/09/14 00:59:59;;;;;;;2.55;1.48;;;16.20;99.90;;;;;;5059589;28;20078;-80
2023/09/14 01:02:26;;;;;;;2.75;1.50;;;16.20;99.90;;;;;;5059889;28;20033;-81
2023/09/14 01:04:53;;;;;;;3.30;1.60;;;16.20;99.90;;;;;;5077477;28;20078;-77
2023/09/14 01:07:19;;;;;;;2.55;1.50;;;16.20;99.90;;;;;;5079312;28;20071;-82
2023/09/14 01:09:44;;;;;;;2.58;1.25;;;16.20;99.90;;;;;;5078172;28;20028;-81
2023/09/14 01:12:10;;;;;;;2.63;1.50;;;16.20;99.90;;;;;;5077409;28;20028;-80
2023/09/14 01:14:56;;;;;;;2.55;1.50;;;16.20;99.90;;;;;;5079298;28;20025;-81
2023/09/14 01:17:34;;;;;;;3.35;1.70;;;16.20;99.90;;;;;;5078112;28;20460;-81
2023/09/14 01:20:19;;;;;;;3.67;1.73;;;16.20;99.90;;;;;;5076973;28;20482;-80
2023/09/14 01:23:11;;;;;;;3.08;1.33;;;16.20;99.90;;;;;;5077106;28;20081;-80
2023/09/14 01:25:47;;;;;;;2.40;1.60;;;16.20;99.90;;;;;;5058907;28;20035;-81
2023/09/14 01:28:14;;;;;;;2.67;1.80;;;16.20;99.90;;;;;;5076896;28;20095;-80
2023/09/14 01:30:42;;;;;;;2.28;1.35;;;16.20;99.90;;;;;;5059092;28;20036;-81
2023/09/14 01:33:10;;;;;;;3.78;1.50;;;16.20;99.90;;;;;;5058591;28;20036;-80
2023/09/14 01:35:43;;;;;;;3.08;1.70;;;16.10;99.90;;;;;;5058153;28;20384;-81
2023/09/14 01:38:09;;;;;;;2.72;1.77;;;16.10;99.90;;;;;;5077127;28;20024;-81
2023/09/14 01:40:36;;;;;;;2.70;1.90;;;16.20;99.90;;;;;;5076050;28;20366;-81
2023/09/14 01:43:06;;;;;;;3.15;2.10;;;16.20;99.90;;;;;;5076208;28;20020;-81
2023/09/14 01:45:33;;;;;;;3.42;2.20;;;16.20;99.90;;;;;;5075953;28;20031;-81
2023/09/14 01:48:00;;;;;;;2.75;1.80;;;16.20;99.90;;;;;;5076641;28;20025;-80
2023/09/14 01:50:26;;;;;;;2.80;2.10;;;16.20;99.90;;;;;;5075826;28;20048;-80
2023/09/14 01:52:53;;;;;;;2.92;1.95;;;16.10;99.90;;;;;;5076468;28;20028;-80
2023/09/14 01:55:19;;;;;;;2.58;1.90;;;16.10;99.90;;;;;;5075975;28;20397;-80
2023/09/14 01:57:45;;;;;;;3.78;2.20;;;16.10;99.90;;;;;;5058485;28;20025;-80
2023/09/14 02:00:11;;;;;;;2.83;1.80;;;16.10;99.90;;;;;;5075743;28;20047;-80
2023/09/14 02:02:37;;;;;;;2.60;1.90;;;16.10;99.90;;;;;;5057768;28;20476;-80
2023/09/14 02:05:03;;;;;;;3.78;1.73;;;16.10;99.90;;;;;;5075135;28;20472;-81
2023/09/14 02:07:28;;;;;;;3.35;1.95;;;16.10;99.90;;;;;;5075578;28;20078;-80
2023/09/14 02:09:54;;;;;;;2.90;2.00;;;16.10;99.90;;;;;;5075940;28;20516;-80
2023/09/14 02:12:20;;;;;;;3.40;1.80;;;16.00;99.90;;;;;;5076230;28;20496;-81
2023/09/14 02:14:46;;;;;;;3.97;2.22;;;16.00;99.90;;;;;;5057706;28;20469;-81
2023/09/14 02:17:12;;;;;;;4.90;2.65;;;16.00;99.90;;;;;;5057847;28;20385;-80
2023/09/14 02:19:38;;;;;;;4.90;2.90;;;16.00;99.90;;;;;;5076002;28;20029;-81
2023/09/14 02:22:03;;;;;;;6.90;3.90;;;16.00;99.90;;;;;;5057552;28;20033;-81
2023/09/14 02:24:29;;;;;;;5.20;3.45;;;15.90;99.90;;;;;;5058051;28;20431;-80
2023/09/14 02:26:55;;;;;;;4.68;3.05;;;15.90;99.90;;;;;;5074644;28;20025;-80
2023/09/14 02:29:21;;;;;;;4.68;3.10;;;15.90;99.90;;;;;;5057859;28;20037;-81
2023/09/14 02:31:46;;;;;;;5.18;3.13;;;15.90;99.90;;;;;;5075479;28;20408;-80
2023/09/14 02:34:12;;;;;;;4.07;2.40;;;16.00;99.90;;;;;;5075247;28;20508;-81
2023/09/14 02:36:39;;;;;;;3.75;2.20;;;15.90;99.90;;;;;;5075186;28;20101;-80
2023/09/14 02:39:05;;;;;;;3.10;1.67;;;15.90;99.90;;;;;;5076152;28;20059;-81
2023/09/14 02:41:31;;;;;;;2.58;1.67;;;16.00;99.90;;;;;;5075229;28;20024;-80
2023/09/14 02:43:57;;;;;;;2.95;1.83;;;15.90;99.90;;;;;;5075646;28;20025;-80
2023/09/14 02:46:22;;;;;;;3.50;2.05;;;15.90;99.90;;;;;;5075367;28;20029;-80
2023/09/14 02:48:48;;;;;;;4.20;1.92;;;15.90;99.90;;;;;;5075187;28;20029;-81
2023/09/14 02:51:14;;;;;;;3.70;1.73;;;15.80;99.90;;;;;;5040235;28;20396;-80
2023/09/14 02:53:41;;;;;;;2.88;1.83;;;15.80;99.90;;;;;;5074032;28;20472;-81
2023/09/14 02:56:09;;;;;;;3.08;2.20;;;15.70;99.90;;;;;;5075454;28;20020;-80
2023/09/14 02:58:35;;;;;;;5.80;1.85;;;15.70;99.90;;;;;;5057270;28;20028;-80
2023/09/14 03:01:09;;;;;;;2.50;1.83;;;15.70;99.90;;;;;;5074840;28;20029;-80
2023/09/14 03:03:39;;;;;;;3.63;2.00;;;15.70;99.90;;;;;;5075163;28;20028;-81
2023/09/14 03:06:05;;;;;;;3.05;1.90;;;15.70;99.90;;;;;;5073062;28;20392;-80
2023/09/14 03:08:32;;;;;;;2.38;1.63;;;15.70;99.90;;;;;;5074941;28;20029;-80
2023/09/14 03:11:01;;;;;;;3.78;2.30;;;15.70;99.90;;;;;;5057097;28;20120;-80
2023/09/14 03:13:27;;;;;;;2.70;1.63;;;15.80;99.90;;;;;;5056866;28;20032;-80
2023/09/14 03:15:57;;;;;;;2.45;1.58;;;15.70;99.90;;;;;;5074889;28;20066;-80
2023/09/14 03:18:23;;;;;;;3.53;1.73;;;15.70;99.90;;;;;;5078198;28;20059;-80
2023/09/14 03:20:56;;;;;;;3.10;1.80;;;15.70;99.90;;;;;;5079185;28;20376;-80
2023/09/14 03:23:23;;;;;;;3.50;2.00;;;15.70;99.90;;;;;;5079556;28;20027;-80
2023/09/14 03:25:49;;;;;;;2.97;1.80;;;15.70;99.90;;;;;;5079121;28;20036;-80
2023/09/14 03:28:16;;;;;;;2.78;1.70;;;15.60;99.90;;;;;;5061381;28;20036;-80
2023/09/14 03:30:42;;;;;;;3.47;2.00;;;15.60;99.90;;;;;;5061233;28;20396;-80
2023/09/14 03:33:08;;;;;;;3.03;2.00;;;15.60;99.90;;;;;;5077616;28;20040;-80
2023/09/14 03:35:34;;;;;;;3.67;2.15;;;15.60;99.90;;;;;;5078330;28;20028;-80
2023/09/14 03:38:01;;;;;;;2.72;1.80;;;15.60;99.90;;;;;;5078794;28;20025;-80
2023/09/14 03:40:26;;;;;;;6.28;2.05;;;15.60;99.90;;;;;;5078339;28;20135;-81
2023/09/14 03:42:52;;;;;;;2.78;1.90;;;15.60;99.90;;;;;;5079879;28;20020;-80
2023/09/14 03:45:18;;;;;;;2.90;1.98;;;15.60;99.90;;;;;;5079970;28;20033;-81
2023/09/14 03:47:44;;;;;;;3.78;2.00;;;15.60;99.90;;;;;;5078068;28;20028;-80
2023/09/14 03:50:10;;;;;;;4.07;2.08;;;15.60;99.90;;;;;;5079937;28;20032;-80
2023/09/14 03:52:37;;;;;;;3.35;2.22;;;15.60;99.90;;;;;;5078331;28;20020;-80
2023/09/14 03:55:03;;;;;;;3.38;2.13;;;15.60;99.90;;;;;;5079605;28;20036;-80
2023/09/14 03:57:29;;;;;;;2.75;2.00;;;15.70;99.90;;;;;;5080534;28;20017;-81
2023/09/14 03:59:56;;;;;;;3.20;2.10;;;15.70;99.90;;;;;;5067230;28;20104;-81
2023/09/14 04:02:23;;;;;;;2.17;1.52;;;15.70;99.90;;;;;;5086376;28;20025;-80
2023/09/14 04:04:49;;;;;;;3.28;1.63;;;15.70;99.90;;;;;;5080348;28;20056;-80
2023/09/14 04:07:16;;;;;;;3.13;1.90;;;15.70;99.90;;;;;;5080163;28;20055;-81
2023/09/14 04:09:41;;;;;;;3.08;2.30;;;15.80;99.90;;;;;;5079772;28;20033;-80
2023/09/14 04:12:08;;;;;;;3.00;2.30;;;15.80;99.90;;;;;;5080098;28;20039;-81
2023/09/14 04:14:34;;;;;;;6.80;2.13;;;15.80;99.90;;;;;;5079661;28;20389;-81
2023/09/14 04:17:01;;;;;;;3.63;2.20;;;15.80;99.90;;;;;;5078284;28;20021;-81
2023/09/14 04:19:28;;;;;;;3.20;2.15;;;15.80;99.90;;;;;;5078594;28;20028;-81
2023/09/14 04:21:54;;;;;;;4.03;2.10;;;15.80;99.90;;;;;;5078936;28;20029;-81
2023/09/14 04:24:20;;;;;;;3.67;2.47;;;15.80;99.90;;;;;;5079425;28;20405;-80
2023/09/14 04:26:46;;;;;;;3.67;2.13;;;15.80;99.90;;;;;;5078911;28;20381;-80
2023/09/14 04:29:12;;;;;;;3.13;2.00;;;15.80;99.90;;;;;;5060898;28;20495;-81
2023/09/14 04:31:37;;;;;;;3.20;2.28;;;15.90;99.90;;;;;;5078438;28;20028;-80
2023/09/14 04:34:04;;;;;;;3.25;2.00;;;15.90;99.90;;;;;;5061152;28;20072;-81
2023/09/14 04:36:31;;;;;;;2.97;2.08;;;15.80;99.90;;;;;;5077773;28;20033;-80
2023/09/14 04:38:57;;;;;;;3.00;2.03;;;15.80;99.90;;;;;;5078274;28;20021;-79
2023/09/14 04:41:22;;;;;;;3.75;2.35;;;15.80;99.90;;;;;;5078295;28;20062;-79
2023/09/14 04:43:48;;;;;;;3.50;1.80;;;15.80;99.90;;;;;;5071881;28;20029;-80
2023/09/14 04:46:14;;;;;;;4.85;2.00;;;15.80;99.90;;;;;;5077236;28;20036;-80
2023/09/14 04:48:41;;;;;;;2.50;2.00;;;15.80;99.90;;;;;;5077444;28;20395;-79
2023/09/14 04:51:07;;;;;;;3.80;2.20;;;15.80;99.90;;;;;;5059589;28;20107;-80
2023/09/14 04:53:33;;;;;;;2.78;2.00;;;15.80;99.90;;;;;;5078370;28;20063;-80
2023/09/14 04:55:59;;;;;;;2.60;1.73;;;15.80;99.90;;;;;;5077190;28;20035;-80
2023/09/14 04:58:25;;;;;;;2.40;1.80;;;15.80;99.90;;;;;;5078156;28;20020;-80
2023/09/14 05:00:51;;;;;;;3.70;1.83;;;15.80;99.90;;;;;;5077936;28;20033;-81
2023/09/14 05:03:17;;;;;;;2.75;1.83;;;15.80;99.90;;;;;;5078194;28;20488;-80
2023/09/14 05:05:48;;;;;;;5.15;2.00;;;15.80;99.90;;;;;;5077118;28;20029;-80
2023/09/14 05:08:14;;;;;;;3.47;1.83;;;15.80;99.90;;;;;;5077649;28;20029;-80
2023/09/14 05:10:39;;;;;;;3.08;1.88;;;15.80;99.90;;;;;;5076261;28;20389;-81
2023/09/14 05:13:05;;;;;;;2.67;1.80;;;15.70;99.90;;;;;;5077701;28;20099;-81
2023/09/14 05:15:31;;;;;;;2.97;1.92;;;15.80;99.90;;;;;;5077772;28;20033;-80
2023/09/14 05:17:57;;;;;;;3.28;2.00;;;15.80;99.90;;;;;;5059497;28;20388;-81
2023/09/14 05:20:22;;;;;;;3.17;2.00;;;15.70;99.90;;;;;;5059907;28;20029;-81
2023/09/14 05:22:48;;;;;;;3.20;2.10;;;15.70;99.90;;;;;;5077348;28;20502;-81
2023/09/14 05:25:14;;;;;;;3.25;1.95;;;15.70;99.90;;;;;;5077384;28;20033;-80
2023/09/14 05:27:41;;;;;;;2.45;1.73;;;15.70;99.90;;;;;;5044485;28;20370;-78
2023/09/14 05:30:10;;;;;;;2.83;1.95;;;15.70;99.90;;;;;;5060825;28;20063;-78
2023/09/14 05:32:37;;;;;;;4.45;2.15;;;15.70;99.90;;;;;;5079380;28;20032;-78
2023/09/14 05:35:06;;;;;;;3.22;2.38;;;15.60;99.90;;;;;;5078710;28;20031;-78
2023/09/14 05:37:33;;;;;;;4.75;2.67;;;15.60;99.90;;;;;;5078765;28;20033;-79
2023/09/14 05:39:58;;;;;;;3.63;2.58;;;15.60;99.90;;;;;;5079521;28;20025;-79
2023/09/14 05:42:24;;;;;;;4.90;2.67;;;15.60;99.90;;;;;;5079218;28;20039;-78
2023/09/14 05:44:50;;;;;;;4.28;2.47;;;15.60;99.90;;;;;;5061441;28;20021;-79
2023/09/14 05:47:15;;;;;;;3.83;2.50;;;15.60;99.90;;;;;;5080026;28;20032;-79
2023/09/14 05:49:42;;;;;;;4.10;2.85;;;15.50;99.90;;;;;;5078897;28;20031;-79
2023/09/14 05:52:08;;;;;;;3.92;2.65;;;15.50;99.90;;;;;;5078476;28;20029;-79
2023/09/14 05:54:36;;;;;;;4.03;2.63;;;15.50;99.90;;;;;;5079113;28;20084;-79
2023/09/14 05:57:02;;;;;;;3.33;2.20;;;15.40;99.90;;;;;;5079277;28;20025;-79
2023/09/14 05:59:28;;;;;;;4.57;2.55;;;15.50;99.90;;;;;;5078668;28;20077;-79
2023/09/14 06:01:54;;;;;;;3.83;2.40;;;15.50;99.90;;;;;;5079246;28;20111;-79
2023/09/14 06:04:20;;;;;;;4.13;2.60;;;15.50;99.90;;;;;;5079457;28;20024;-79
2023/09/14 06:06:45;;;;;;;2.92;1.80;;;15.50;99.90;;;;;;5078444;28;20040;-79
2023/09/14 06:09:11;;;;;;;3.28;2.15;;;15.50;99.90;;;;;;5078733;28;20036;-79
2023/09/14 06:11:37;;;;;;;4.10;2.30;;;15.50;99.90;;;;;;5077342;28;20053;-78
2023/09/14 06:14:03;;;;;;;3.90;2.85;;;15.60;99.90;;;;;;5076228;28;20036;-79
2023/09/14 06:16:28;;;;;;;3.60;2.60;;;15.60;99.90;;;;;;5076763;28;20033;-79
2023/09/14 06:18:54;;;;;;;4.80;2.58;;;15.60;99.90;;;;;;5060248;28;20052;-79
2023/09/14 06:21:20;;;;;;;3.88;2.20;;;15.60;99.90;;;;;;5077062;28;20388;-79
2023/09/14 06:23:46;;;;;;;4.32;2.40;;;15.60;99.90;;;;;;5077798;28;20020;-79
2023/09/14 06:26:13;;;;;;;3.47;2.28;;;15.60;99.90;;;;;;5078980;28;20021;-79
2023/09/14 06:28:38;;;;;;;4.13;2.33;;;15.60;99.90;;;;;;5078570;28;20424;-79
2023/09/14 06:31:04;;;;;;;3.38;2.20;;;15.70;99.90;;;;;;5078494;28;20033;-79
2023/09/14 06:33:30;;;;;;;3.22;2.15;;;15.70;99.90;;;;;;5078501;28;20052;-79
2023/09/14 06:35:56;;;;;;;3.72;1.98;;;15.70;99.90;;;;;;5078231;28;20400;-79
2023/09/14 06:38:22;;;;;;;4.22;1.98;;;15.80;99.90;;;;;;5078116;28;20028;-79
2023/09/14 06:40:48;;;;;;;3.75;2.00;;;15.80;99.90;;;;;;5078778;28;20028;-79
2023/09/14 06:43:14;;;;;;;2.95;1.95;;;15.80;99.90;;;;;;5077923;28;20025;-79
2023/09/14 06:45:39;;;;;;;2.45;1.75;;;15.80;99.90;;;;;;5060271;28;20499;-79
2023/09/14 06:48:05;;;;;;;2.67;1.90;;;15.90;99.90;;;;;;5078694;28;20541;-79
2023/09/14 06:50:31;;;;;;;2.40;1.67;;;15.90;99.90;;;;;;5078382;28;20029;-79
2023/09/14 06:52:56;;;;;;;2.45;1.88;;;16.00;99.90;;;;;;5077939;28;20491;-79
2023/09/14 06:55:22;;;;;;;2.72;2.10;;;16.00;99.90;;;;;;5078665;28;20114;-79
2023/09/14 06:57:48;;;;;;;3.00;2.30;;;16.00;99.90;;;;;;5078400;28;20040;-79
2023/09/14 07:00:16;;;;;;;3.10;1.90;;;16.10;99.90;;;;;;5079099;28;20108;-79
2023/09/14 07:02:42;;;;;;;2.70;1.98;;;16.10;99.90;;;;;;5078214;28;20059;-79
2023/09/14 07:05:11;;;;;;;5.28;2.70;;;16.20;99.90;;;;;;5078458;28;20021;-79
2023/09/14 07:07:41;;;;;;;4.03;2.58;;;16.20;99.90;;;;;;5059686;28;20028;-79
2023/09/14 07:10:08;;;;;;;2.80;2.03;;;16.20;99.90;;;;;;5060732;28;20020;-79
2023/09/14 07:12:35;;;;;;;3.00;2.05;;;16.20;99.90;;;;;;5078155;28;20463;-79
2023/09/14 07:15:02;;;;;;;2.90;1.83;;;16.30;99.90;;;;;;5078576;28;20120;-79
2023/09/14 07:17:28;;;;;;;2.78;1.88;;;16.30;99.90;;;;;;5077415;28;20020;-79
2023/09/14 07:19:53;;;;;;;3.47;2.60;;;16.30;99.90;;;;;;5077797;28;20024;-79
2023/09/14 07:22:19;;;;;;;3.30;2.15;;;16.40;99.90;;;;;;5077773;28;20035;-79
2023/09/14 07:24:46;;;;;;;3.83;2.50;;;16.40;99.90;;;;;;5060141;28;20074;-79
2023/09/14 07:27:13;;;;;;;3.90;2.25;;;16.40;99.90;;;;;;5078679;28;20021;-79
2023/09/14 07:29:39;;;;;;;3.67;2.30;;;16.40;99.90;;;;;;5081989;28;20036;-79
2023/09/14 07:32:04;;;;;;;4.85;2.70;;;16.50;99.90;;;;;;5085629;28;20429;-79
2023/09/14 07:34:30;;;;;;;3.72;2.65;;;16.50;99.90;;;;;;5081671;28;20044;-79
2023/09/14 07:36:56;;;;;;;3.53;2.28;;;16.50;99.90;;;;;;5077169;28;20025;-79
2023/09/14 07:39:22;;;;;;;3.00;2.10;;;16.60;99.90;;;;;;5077214;28;20480;-79
2023/09/14 07:41:47;;;;;;;3.13;2.53;;;16.60;99.90;;;;;;5077008;28;20028;-79
2023/09/14 07:44:13;;;;;;;6.35;3.03;;;16.70;99.90;;;;;;5077185;28;20079;-79
2023/09/14 07:46:39;;;;;;;5.32;3.15;;;16.80;99.90;;;;;;5076907;28;20028;-79
2023/09/14 07:49:06;;;;;;;4.90;2.65;;;16.90;99.90;;;;;;5077443;28;20029;-79
2023/09/14 07:51:32;;;;;;;3.60;2.40;;;16.90;99.90;;;;;;5076843;28;20096;-79
2023/09/14 07:53:59;;;;;;;2.70;2.00;;;17.00;99.90;;;;;;5076962;28;20461;-79
2023/09/14 07:56:25;;;;;;;3.67;1.98;;;17.10;99.90;;;;;;5075920;28;20035;-79
2023/09/14 07:58:53;;;;;;;4.15;2.58;;;17.10;99.90;;;;;;5077341;28;20025;-79
2023/09/14 08:01:19;;;;;;;3.17;2.28;;;17.30;99.90;;;;;;5076530;28;20029;-79
2023/09/14 08:03:45;;;;;;;5.35;2.58;;;17.30;99.90;;;;;;5061028;28;20556;-79
2023/09/14 08:06:10;;;;;;;4.75;3.05;;;17.40;99.90;;;;;;5062934;28;20056;-79
2023/09/14 08:08:36;;;;;;;5.97;3.00;;;17.60;99.90;;;;;;5063121;28;20032;-79
2023/09/14 08:11:02;;;;;;;4.28;3.05;;;17.70;99.90;;;;;;5081889;28;20021;-79
2023/09/14 08:13:27;;;;;;;4.65;2.70;;;17.80;99.90;;;;;;5081810;28;20036;-79
2023/09/14 08:15:53;;;;;;;4.75;2.80;;;17.90;99.90;;;;;;5080160;28;20370;-79
2023/09/14 08:18:21;;;;;;;4.85;3.03;;;18.00;99.90;;;;;;5081260;28;20060;-79
2023/09/14 08:20:47;;;;;;;5.45;3.15;;;18.00;99.90;;;;;;5080932;28;20033;-79
2023/09/14 08:23:15;;;;;;;3.63;2.83;;;17.90;99.90;;;;;;5081047;28;20388;-80
2023/09/14 08:25:43;;;;;;;4.57;3.38;;;17.80;99.90;;;;;;5081228;28;20027;-80
2023/09/14 08:28:19;;;;;;;5.60;3.78;;;17.70;99.90;;;;;;5080956;28;20024;-79
2023/09/14 08:30:46;;;;;;;6.32;3.35;;;17.50;99.90;;;;;;5063759;28;20468;-79
2023/09/14 08:33:12;;;;;;;4.63;3.40;;;17.40;99.90;;;;;;5062425;28;20052;-79
2023/09/14 08:35:38;;;;;;;5.63;3.50;;;17.30;99.90;;;;;;5062542;28;20020;-78
2023/09/14 08:38:05;;;;;;;7.65;4.55;;;17.20;99.90;;;;;;5079231;28;20029;-79
2023/09/14 08:40:32;;;;;;;7.20;4.30;;;17.20;99.90;;;;;;5078899;28;20021;-79
2023/09/14 08:43:00;;;;;;;5.10;3.80;;;17.10;99.90;;;;;;5078539;28;20032;-79
2023/09/14 08:45:28;;;;;;;4.82;3.53;;;17.10;99.90;;;;;;5078681;28;20020;-78
2023/09/14 08:47:55;;;;;;;4.72;3.78;;;17.10;99.90;;;;;;5078418;28;20032;-78
2023/09/14 08:50:24;;;;;;;5.63;3.63;;;17.10;99.90;;;;;;5078672;28;20107;-79
2023/09/14 08:52:50;;;;;;;5.13;3.38;;;17.10;99.90;;;;;;5060331;28;20511;-79
2023/09/14 08:55:20;;;;;;;5.90;4.10;;;17.10;99.90;;;;;;5060935;28;20032;-79
2023/09/14 08:57:47;;;;;;;5.10;3.35;;;17.20;99.90;;;;;;5078509;28;20443;-78
2023/09/14 09:00:15;;;;;;;5.25;3.03;;;17.20;99.90;;;;;;5078556;28;20037;-78
2023/09/14 09:02:48;;;;;;;6.07;3.28;;;17.30;99.90;;;;;;5078732;28;20017;-78
2023/09/14 09:05:15;;;;;;;4.90;3.22;;;17.30;99.90;;;;;;5078284;28;20082;-78
2023/09/14 09:07:42;;;;;;;5.72;4.05;;;17.30;99.90;;;;;;5078010;28;20035;-78
2023/09/14 09:10:21;;;;;;;7.35;4.38;;;17.40;99.90;;;;;;5078428;28;20070;-78
2023/09/14 09:12:51;;;;;;;8.75;4.68;;;17.40;99.90;;;;;;5060709;28;20028;-78
2023/09/14 09:15:17;;;;;;;6.38;3.83;;;17.30;99.90;;;;;;5077979;28;20025;-79
2023/09/14 09:17:46;;;;;;;5.53;4.20;;;17.40;99.90;;;;;;5060549;28;20036;-78
2023/09/14 09:20:14;;;;;;;4.85;3.67;;;17.40;99.90;;;;;;5078779;28;20020;-79
2023/09/14 09:22:43;;;;;;;6.05;4.32;;;17.40;99.90;;;;;;5060203;28;20055;-79
2023/09/14 09:25:13;;;;;;;6.45;4.60;;;17.50;99.90;;;;;;5078591;28;20021;-79
2023/09/14 09:27:39;;;;;;;7.20;4.68;;;17.60;99.90;;;;;;5076909;28;20043;-78
2023/09/14 09:30:10;;;;;;;5.68;4.07;;;17.60;99.90;;;;;;5077743;28;20058;-79
2023/09/14 09:32:42;;;;;;;5.25;3.72;;;17.70;99.90;;;;;;5078110;28;20447;-78
2023/09/14 09:35:25;;;;;;;6.28;4.68;;;17.80;99.90;;;;;;5077801;28;20040;-79
2023/09/14 09:37:52;;;;;;;5.38;3.97;;;17.90;99.90;;;;;;5077794;28;20392;-79
2023/09/14 09:40:23;;;;;;;6.20;4.28;;;17.90;99.90;;;;;;5060086;28;20032;-78
2023/09/14 09:42:50;;;;;;;6.10;4.20;;;17.90;99.90;;;;;;5078175;28;20538;-79
2023/09/14 09:45:18;;;;;;;6.88;4.38;;;17.90;99.90;;;;;;5078147;28;20029;-79
2023/09/14 09:47:45;;;;;;;7.85;4.90;;;18.00;99.90;;;;;;5059992;28;20028;-79
2023/09/14 09:50:14;;;;;;;5.97;3.90;;;18.00;99.90;;;;;;5077714;28;20103;-79
2023/09/14 09:52:43;;;;;;;5.20;3.65;;;18.00;99.90;;;;;;5077732;28;20111;-79
2023/09/14 09:55:23;;;;;;;4.97;3.60;;;18.10;99.90;;;;;;5078556;28;20027;-78
2023/09/14 09:57:53;;;;;;;4.32;3.55;;;18.10;99.90;;;;;;5077906;28;20059;-79
2023/09/14 10:00:21;;;;;;;4.82;2.75;;;18.20;99.90;;;;;;5078183;28;20464;-78
2023/09/14 10:02:51;;;;;;;4.15;3.30;;;18.30;99.90;;;;;;5078169;28;20035;-79
2023/09/14 10:05:26;;;;;;;4.20;3.25;;;18.40;99.90;;;;;;5077526;28;20039;-79
2023/09/14 10:07:52;;;;;;;5.30;3.85;;;18.50;99.90;;;;;;5077546;28;20034;-78
2023/09/14 10:10:24;;;;;;;8.15;5.00;;;18.60;99.90;;;;;;5078206;28;20493;-78
2023/09/14 10:12:52;;;;;;;5.38;3.97;;;18.70;99.90;;;;;;5077991;28;20088;-79
2023/09/14 10:15:19;;;;;;;6.25;4.95;;;18.70;99.90;;;;;;5077731;28;20076;-79
2023/09/14 10:17:51;;;;;;;7.07;5.05;;;18.80;99.90;;;;;;5078182;28;20115;-79
2023/09/14 10:20:17;;;;;;;6.07;4.90;;;18.80;99.90;;;;;;5078132;28;20100;-78
2023/09/14 10:22:44;;;;;;;6.82;5.80;;;18.90;99.90;;;;;;5077191;28;20025;-79
2023/09/14 10:25:10;;;;;;;7.00;5.63;;;18.90;99.90;;;;;;5077612;28;20055;-78
2023/09/14 10:27:38;;;;;;;5.43;3.92;;;18.90;99.90;;;;;;5077151;28;20039;-78
2023/09/14 10:30:05;;;;;;;6.93;5.00;;;19.00;99.90;;;;;;5077953;28;20107;-79
2023/09/14 10:32:35;;;;;;;5.53;4.32;;;19.00;99.90;;;;;;5076932;28;20025;-78
2023/09/14 10:35:02;;;;;;;5.78;4.43;;;19.20;99.90;;;;;;5077489;28;20028;-79
2023/09/14 10:37:28;;;;;;;7.00;4.47;;;19.30;99.90;;;;;;5076568;28;20025;-78
2023/09/14 10:39:54;;;;;;;6.63;5.00;;;19.60;99.90;;;;;;5077489;28;20090;-78
2023/09/14 10:42:21;;;;;;;7.25;5.03;;;19.80;99.90;;;;;;5077417;28;20380;-78
2023/09/14 10:44:47;;;;;;;6.03;4.38;;;19.90;99.90;;;;;;5059356;28;20469;-79
2023/09/14 10:47:16;;;;;;;7.45;5.45;;;20.00;99.90;;;;;;5076865;28;20033;-79
2023/09/14 10:49:44;;;;;;;6.28;5.13;;;20.00;99.90;;;;;;5059030;28;20108;-78
2023/09/14 10:52:10;;;;;;;7.38;5.00;;;20.00;99.90;;;;;;5076706;28;20021;-79
2023/09/14 10:54:36;;;;;;;5.95;4.57;;;20.10;99.90;;;;;;5077116;28;20032;-79
2023/09/14 10:57:12;;;;;;;6.15;4.60;;;20.20;99.90;;;;;;5059432;28;20024;-79
2023/09/14 10:59:51;;;;;;;6.85;5.57;;;20.20;99.90;;;;;;5077485;28;20020;-79
2023/09/14 11:02:45;;;;;;;7.25;5.13;;;20.20;99.90;;;;;;5085941;28;20040;-79
2023/09/14 11:05:17;;;;;;;6.22;4.35;;;20.30;99.90;;;;;;5085212;28;20025;-79
2023/09/14 11:07:47;;;;;;;8.10;5.78;;;20.30;99.90;;;;;;5080215;28;20108;-79
2023/09/14 11:10:17;;;;;;;6.28;5.10;;;20.40;99.90;;;;;;5077073;28;20442;-79
2023/09/14 11:12:44;;;;;;;7.35;5.65;;;20.40;99.90;;;;;;5076886;28;20025;-78
2023/09/14 11:15:18;;;;;;;7.65;5.30;;;20.40;99.90;;;;;;5063669;28;20100;-79
2023/09/14 11:17:46;;;;;;;7.88;5.60;;;20.50;99.90;;;;;;5070527;28;20430;-78
2023/09/14 11:20:37;;;;;;;6.65;4.53;;;20.50;99.90;;;;;;5076619;28;20028;-78
2023/09/14 11:23:03;;;;;;;5.80;4.72;;;20.50;99.90;;;;;;5047472;28;20039;-79
2023/09/14 11:25:33;;;;;;;4.97;4.13;;;20.50;99.90;;;;;;5059599;28;20029;-79
2023/09/14 11:28:00;;;;;;;7.78;4.57;;;20.50;99.90;;;;;;5077376;28;20030;-78
2023/09/14 11:30:27;;;;;;;5.63;4.20;;;20.60;99.90;;;;;;5076821;28;20024;-79
2023/09/14 11:32:54;;;;;;;4.93;3.70;;;20.70;99.90;;;;;;5041839;28;20036;-77
2023/09/14 11:35:34;;;;;;;5.28;4.10;;;20.90;99.90;;;;;;5076012;28;20082;-79
2023/09/14 11:38:05;;;;;;;5.40;3.80;;;21.20;99.90;;;;;;5078432;28;20393;-78
2023/09/14 11:40:33;;;;;;;5.32;4.22;;;21.30;99.90;;;;;;5063265;28;20464;-78
2023/09/14 11:43:08;;;;;;;4.85;3.83;;;21.40;99.90;;;;;;5080526;28;20017;-78
2023/09/14 11:45:40;;;;;;;6.43;4.10;;;21.40;99.90;;;;;;5080942;28;20028;-78
2023/09/14 11:48:08;;;;;;;6.47;4.22;;;21.40;99.90;;;;;;5080719;28;20471;-78
2023/09/14 11:50:34;;;;;;;6.20;3.40;;;21.60;99.90;;;;;;5080704;28;20037;-78
2023/09/14 11:53:00;;;;;;;5.55;3.45;;;21.60;99.90;;;;;;5080566;28;20028;-78
2023/09/14 11:55:26;;;;;;;5.68;3.30;;;21.60;99.90;;;;;;5079936;28;20190;-78
2023/09/14 11:57:55;;;;;;;3.95;3.10;;;21.60;99.90;;;;;;5080890;28;20024;-78
2023/09/14 12:00:22;;;;;;;7.30;3.20;;;21.60;99.90;;;;;;5081347;28;20020;-78
2023/09/14 12:02:48;;;;;;;4.50;3.40;;;21.60;99.90;;;;;;5080778;28;20021;-78
2023/09/14 12:05:15;;;;;;;5.03;3.33;;;21.50;99.90;;;;;;5081010;28;20043;-78
2023/09/14 12:07:43;;;;;;;5.88;3.70;;;21.50;99.90;;;;;;5080700;28;20481;-78
2023/09/14 12:10:23;;;;;;;4.05;3.47;;;21.40;99.90;;;;;;5080663;28;20472;-78
2023/09/14 12:12:49;;;;;;;4.10;3.50;;;21.50;99.90;;;;;;5081281;28;20032;-78
2023/09/14 12:15:21;;;;;;;4.32;3.47;;;21.60;99.90;;;;;;5080436;28;20103;-78
2023/09/14 12:17:52;;;;;;;5.20;3.70;;;21.70;99.90;;;;;;5080706;28;20050;-78
2023/09/14 12:20:18;;;;;;;6.65;3.60;;;21.80;99.90;;;;;;5063222;28;20044;-78
2023/09/14 12:22:45;;;;;;;4.85;3.40;;;22.00;99.90;;;;;;5080475;28;20094;-78
2023/09/14 12:25:13;;;;;;;4.82;3.75;;;22.10;99.90;;;;;;5081091;28;20029;-78
2023/09/14 12:27:40;;;;;;;5.07;3.65;;;22.20;99.90;;;;;;5080691;28;20032;-78
2023/09/14 12:30:09;;;;;;;4.90;3.80;;;22.30;99.90;;;;;;5079969;28;20385;-78
2023/09/14 12:32:38;;;;;;;8.23;4.07;;;22.40;99.90;;;;;;5080852;28;20500;-78
2023/09/14 12:35:05;;;;;;;4.88;3.15;;;22.50;99.90;;;;;;5080614;28;20115;-78
2023/09/14 12:37:31;;;;;;;5.38;3.42;;;22.50;99.90;;;;;;5079949;28;20488;-78
2023/09/14 12:39:57;;;;;;;4.13;3.30;;;22.70;99.90;;;;;;5079991;28;20036;-79
2023/09/14 12:42:24;;;;;;;4.70;3.30;;;22.80;99.90;;;;;;5062004;28;20016;-78
2023/09/14 12:44:52;;;;;;;5.38;3.30;;;22.90;99.90;;;;;;5080060;28;20475;-79
2023/09/14 12:47:18;;;;;;;4.05;3.03;;;23.00;99.90;;;;;;5080109;28;20025;-78
2023/09/14 12:49:44;;;;;;;3.70;2.53;;;23.00;99.90;;;;;;5044761;28;20381;-78